Time;durP1;ratioP1;P1;durP2;ratioP2;P2;SDS_P1;SDS_P2;PMS_P1;PMS_P2;Temp;Humidity;BMP_temperature;BMP_pressure;BME280_temperature;BME280_humidity;BME280_pressure;Samples;Min_cycle;Max_cycle;Signal;HPM_P1;HPM_P2
2021/12/29 00:00:31;;;;;;;27.70;19.87;;;3.50;99.90;;;;;;5028205;28;20169;-79
2021/12/29 00:03:00;;;;;;;30.47;20.40;;;3.50;99.90;;;;;;5029566;28;20209;-79
2021/12/29 00:05:26;;;;;;;32.77;22.17;;;3.60;99.90;;;;;;5048998;28;20201;-80
2021/12/29 00:07:52;;;;;;;29.67;20.27;;;3.50;99.90;;;;;;5039909;28;20723;-79
2021/12/29 00:10:19;;;;;;;31.87;21.17;;;3.50;99.90;;;;;;5037451;28;20273;-79
2021/12/29 00:12:49;;;;;;;29.20;20.07;;;3.40;99.90;;;;;;5035379;28;20195;-78
2021/12/29 00:15:17;;;;;;;32.43;21.17;;;3.70;99.90;;;;;;5035962;28;20541;-79
2021/12/29 00:17:45;;;;;;;31.53;21.60;;;3.60;99.90;;;;;;5039312;28;20381;-79
2021/12/29 00:20:13;;;;;;;29.80;20.07;;;3.50;99.90;;;;;;5047488;28;20549;-79
2021/12/29 00:22:39;;;;;;;28.90;19.37;;;3.50;99.90;;;;;;5036718;28;20181;-79
2021/12/29 00:25:06;;;;;;;33.50;21.73;;;3.40;99.90;;;;;;5036542;28;20201;-79
2021/12/29 00:27:32;;;;;;;31.93;20.93;;;3.50;99.90;;;;;;5043244;28;20236;-79
2021/12/29 00:29:57;;;;;;;29.67;19.47;;;3.40;99.90;;;;;;5036740;28;20186;-79
2021/12/29 00:32:41;;;;;;;32.03;21.07;;;3.50;99.90;;;;;;5042529;28;20216;-79
2021/12/29 00:35:41;;;;;;;31.80;20.67;;;3.60;99.90;;;;;;4996798;28;20278;-80
2021/12/29 00:38:45;;;;;;;29.77;19.40;;;3.50;99.90;;;;;;5041347;28;20166;-79
2021/12/29 00:41:30;;;;;;;30.17;19.63;;;3.50;99.90;;;;;;5042458;28;20186;-79
2021/12/29 00:44:19;;;;;;;31.90;20.13;;;3.60;99.90;;;;;;5039139;28;20264;-79
2021/12/29 00:47:02;;;;;;;34.87;20.80;;;3.70;99.90;;;;;;5033720;28;20550;-79
2021/12/29 00:49:32;;;;;;;32.87;21.60;;;3.50;99.90;;;;;;5026202;28;20166;-79
2021/12/29 00:51:59;;;;;;;32.70;21.10;;;3.40;99.90;;;;;;5046263;28;20268;-79
2021/12/29 00:54:25;;;;;;;34.63;21.87;;;3.30;99.90;;;;;;5027208;28;20205;-80
2021/12/29 00:56:51;;;;;;;36.70;20.73;;;3.30;99.90;;;;;;5028946;28;20544;-79
2021/12/29 00:59:19;;;;;;;33.87;21.07;;;3.50;99.90;;;;;;5041182;28;20178;-79
2021/12/29 01:01:46;;;;;;;38.13;20.97;;;3.50;99.90;;;;;;5034677;28;20170;-80
2021/12/29 01:04:12;;;;;;;35.93;20.80;;;3.50;99.90;;;;;;5033707;28;20174;-80
2021/12/29 01:06:38;;;;;;;40.33;21.17;;;3.50;99.90;;;;;;5033283;28;20181;-80
2021/12/29 01:09:04;;;;;;;34.47;20.23;;;3.60;99.90;;;;;;5046448;28;20280;-80
2021/12/29 01:11:29;;;;;;;35.73;20.17;;;3.60;99.90;;;;;;5036302;28;20178;-80
2021/12/29 01:13:55;;;;;;;37.40;21.47;;;3.80;99.90;;;;;;5036373;28;20296;-80
2021/12/29 01:19:19;;;;;;;37.10;21.10;;;4.00;99.90;;;;;;5047160;28;20171;-79
2021/12/29 01:21:47;;;;;;;37.47;21.33;;;4.00;99.90;;;;;;5034827;28;20169;-79
2021/12/29 01:24:14;;;;;;;33.17;20.23;;;4.00;99.90;;;;;;5031421;28;20838;-79
2021/12/29 01:26:42;;;;;;;40.87;22.40;;;3.90;99.90;;;;;;5037461;28;20188;-79
2021/12/29 01:29:10;;;;;;;41.10;21.10;;;3.90;99.90;;;;;;5047323;28;20182;-79
2021/12/29 01:31:36;;;;;;;35.53;20.83;;;3.90;99.90;;;;;;5042847;28;20204;-80
2021/12/29 01:34:04;;;;;;;38.47;21.17;;;4.10;99.90;;;;;;5035635;28;20233;-79
2021/12/29 01:36:32;;;;;;;34.57;21.30;;;4.10;99.90;;;;;;5033341;28;20265;-79
2021/12/29 01:38:57;;;;;;;36.83;21.70;;;4.00;99.90;;;;;;5028954;28;20185;-79
2021/12/29 01:41:23;;;;;;;37.60;20.60;;;3.90;99.90;;;;;;5043069;28;20169;-79
2021/12/29 01:43:49;;;;;;;33.97;21.27;;;3.80;99.90;;;;;;5044446;28;20193;-79
2021/12/29 01:46:14;;;;;;;42.33;22.93;;;3.70;99.90;;;;;;5044907;28;20228;-80
2021/12/29 01:48:40;;;;;;;42.73;23.30;;;3.70;99.90;;;;;;5043353;28;20185;-79
2021/12/29 01:51:06;;;;;;;39.13;22.57;;;3.80;99.90;;;;;;5047570;28;20208;-79
2021/12/29 01:53:33;;;;;;;38.40;21.50;;;3.70;99.90;;;;;;5049631;28;20290;-79
2021/12/29 01:55:59;;;;;;;37.50;21.10;;;3.70;99.90;;;;;;5048964;28;20201;-79
2021/12/29 01:58:26;;;;;;;39.53;21.73;;;3.70;99.90;;;;;;5031559;28;20540;-79
2021/12/29 02:00:52;;;;;;;38.37;22.20;;;3.70;99.90;;;;;;5044556;28;20170;-80
2021/12/29 02:03:19;;;;;;;37.10;22.17;;;3.60;99.90;;;;;;5019743;28;20251;-79
2021/12/29 02:05:44;;;;;;;40.83;23.00;;;3.60;99.90;;;;;;5030324;28;20224;-79
2021/12/29 02:08:11;;;;;;;42.97;22.80;;;3.70;99.90;;;;;;5044985;28;20515;-79
2021/12/29 02:10:44;;;;;;;38.00;22.13;;;3.70;99.90;;;;;;5033944;28;20182;-79
2021/12/29 02:13:12;;;;;;;45.57;23.77;;;3.70;99.90;;;;;;5037683;28;20189;-79
2021/12/29 02:15:39;;;;;;;46.37;24.00;;;3.70;99.90;;;;;;5033780;28;20224;-80
2021/12/29 02:18:13;;;;;;;44.27;22.10;;;3.60;99.90;;;;;;5045281;28;20204;-80
2021/12/29 02:20:40;;;;;;;39.13;21.93;;;3.80;99.90;;;;;;5032236;28;20271;-80
2021/12/29 02:23:14;;;;;;;44.73;22.27;;;3.90;99.90;;;;;;5030617;28;20388;-80
2021/12/29 02:25:52;;;;;;;42.97;22.40;;;4.00;99.90;;;;;;5030036;28;20677;-78
2021/12/29 02:28:24;;;;;;;37.70;22.10;;;4.10;99.90;;;;;;5025756;28;20265;-79
2021/12/29 02:30:51;;;;;;;45.00;23.40;;;4.00;99.90;;;;;;5049602;28;20263;-79
2021/12/29 02:33:17;;;;;;;44.77;23.40;;;3.90;99.90;;;;;;5035868;28;20270;-79
2021/12/29 02:35:44;;;;;;;41.43;22.70;;;3.90;99.90;;;;;;5026191;28;20641;-79
2021/12/29 02:38:21;;;;;;;48.07;24.40;;;3.80;99.90;;;;;;5037567;28;20225;-78
2021/12/29 02:40:53;;;;;;;45.53;23.00;;;3.80;99.90;;;;;;5024963;28;20209;-79
2021/12/29 02:43:21;;;;;;;44.33;23.97;;;3.90;99.90;;;;;;5042879;28;20192;-79
2021/12/29 02:45:50;;;;;;;45.20;23.17;;;3.80;99.90;;;;;;5027611;28;20216;-80
2021/12/29 02:48:17;;;;;;;40.80;22.63;;;3.90;99.90;;;;;;5041292;28;20177;-79
2021/12/29 02:50:45;;;;;;;43.07;23.00;;;3.80;99.90;;;;;;5033710;28;20222;-79
2021/12/29 02:53:12;;;;;;;41.63;22.53;;;3.90;99.90;;;;;;5033445;28;20229;-79
2021/12/29 02:55:38;;;;;;;41.33;22.53;;;3.80;99.90;;;;;;5037517;28;20197;-79
2021/12/29 02:58:03;;;;;;;42.33;23.17;;;3.80;99.90;;;;;;5038420;28;20604;-79
2021/12/29 03:00:39;;;;;;;43.57;23.60;;;4.00;99.90;;;;;;5035125;28;20169;-79
2021/12/29 03:03:17;;;;;;;46.30;24.13;;;3.90;99.90;;;;;;5044434;28;20188;-79
2021/12/29 03:05:44;;;;;;;43.53;22.27;;;3.70;99.90;;;;;;5048752;28;20197;-80
2021/12/29 03:08:12;;;;;;;53.10;26.83;;;3.70;99.90;;;;;;5033164;28;20177;-80
2021/12/29 03:10:39;;;;;;;43.10;22.43;;;3.80;99.90;;;;;;5052341;28;20665;-79
2021/12/29 03:13:05;;;;;;;48.13;25.07;;;3.80;99.90;;;;;;5035039;28;20208;-79
2021/12/29 03:15:30;;;;;;;45.87;22.77;;;3.90;99.90;;;;;;5041949;28;20189;-79
2021/12/29 03:17:56;;;;;;;46.77;23.63;;;3.90;99.90;;;;;;5030237;28;20181;-79
2021/12/29 03:20:22;;;;;;;46.43;24.53;;;4.00;99.90;;;;;;5039631;28;20185;-79
2021/12/29 03:22:47;;;;;;;47.43;24.77;;;4.10;99.90;;;;;;5050288;28;20261;-79
2021/12/29 03:25:13;;;;;;;43.50;23.83;;;4.00;99.90;;;;;;5050113;28;20228;-80
2021/12/29 03:27:39;;;;;;;48.20;24.20;;;3.90;99.90;;;;;;5041404;28;20174;-80
2021/12/29 03:30:05;;;;;;;45.17;21.53;;;4.00;99.90;;;;;;5050512;28;20190;-80
2021/12/29 03:32:40;;;;;;;52.20;24.50;;;4.10;99.90;;;;;;5049002;28;20169;-80
2021/12/29 03:35:06;;;;;;;45.53;24.37;;;4.20;99.90;;;;;;5039928;28;20255;-80
2021/12/29 03:37:31;;;;;;;46.23;25.13;;;4.20;99.90;;;;;;5034097;28;20264;-78
2021/12/29 03:39:57;;;;;;;47.60;24.90;;;4.00;99.90;;;;;;5048053;28;20228;-79
2021/12/29 03:42:23;;;;;;;56.07;26.03;;;3.90;99.90;;;;;;5045119;28;20188;-79
2021/12/29 03:44:48;;;;;;;55.97;26.43;;;4.00;99.90;;;;;;5054062;28;20243;-79
2021/12/29 03:47:14;;;;;;;51.13;25.30;;;3.80;99.90;;;;;;5042838;28;20185;-79
2021/12/29 03:49:39;;;;;;;53.33;25.20;;;3.80;99.90;;;;;;5046396;28;20629;-79
2021/12/29 03:52:05;;;;;;;53.53;24.93;;;3.90;99.90;;;;;;5042505;28;20269;-79
2021/12/29 03:54:32;;;;;;;52.47;25.00;;;4.00;99.90;;;;;;5047529;28;20205;-79
2021/12/29 03:57:02;;;;;;;51.23;25.53;;;4.00;99.90;;;;;;5041607;28;20217;-79
2021/12/29 03:59:28;;;;;;;48.93;23.13;;;4.00;99.90;;;;;;5049831;28;20202;-79
2021/12/29 04:01:55;;;;;;;53.63;25.43;;;4.10;99.90;;;;;;5025477;28;20174;-79
2021/12/29 04:04:21;;;;;;;49.13;24.50;;;4.10;99.90;;;;;;5050187;28;20296;-79
2021/12/29 04:06:47;;;;;;;54.00;23.83;;;4.10;99.90;;;;;;5051004;28;20217;-79
2021/12/29 04:09:13;;;;;;;56.23;24.60;;;4.20;99.90;;;;;;5051558;28;20196;-79
2021/12/29 04:11:39;;;;;;;51.30;25.20;;;4.10;99.90;;;;;;5043470;28;20177;-79
2021/12/29 04:14:04;;;;;;;51.07;23.60;;;4.00;99.90;;;;;;5035806;28;20250;-79
2021/12/29 04:16:30;;;;;;;49.80;23.80;;;3.90;99.90;;;;;;5035327;28;20182;-79
2021/12/29 04:19:17;;;;;;;52.33;25.10;;;3.90;99.90;;;;;;5042688;28;20185;-79
2021/12/29 04:21:45;;;;;;;50.33;24.23;;;4.10;99.90;;;;;;5020742;28;20180;-79
2021/12/29 04:24:11;;;;;;;56.07;26.07;;;4.10;99.90;;;;;;5025653;28;20251;-79
2021/12/29 04:26:38;;;;;;;48.30;22.53;;;4.10;99.90;;;;;;5048367;28;20193;-79
2021/12/29 04:29:05;;;;;;;53.70;25.17;;;4.10;99.90;;;;;;5035668;28;20197;-79
2021/12/29 04:31:31;;;;;;;51.00;23.77;;;4.10;99.90;;;;;;5033669;28;20169;-79
2021/12/29 04:33:57;;;;;;;50.80;24.37;;;4.10;99.90;;;;;;5037770;28;20283;-79
2021/12/29 04:36:24;;;;;;;46.37;22.67;;;3.80;99.90;;;;;;5057863;28;20213;-79
2021/12/29 04:38:54;;;;;;;49.33;24.97;;;3.60;99.90;;;;;;5040789;28;20273;-79
2021/12/29 04:41:20;;;;;;;51.40;24.07;;;3.40;99.90;;;;;;5050651;28;20216;-79
2021/12/29 04:43:46;;;;;;;46.20;22.63;;;3.40;99.90;;;;;;5050135;28;20210;-79
2021/12/29 04:46:16;;;;;;;47.10;23.00;;;3.60;99.90;;;;;;5046967;28;20210;-79
2021/12/29 04:48:49;;;;;;;48.43;23.50;;;3.70;99.90;;;;;;5058740;28;20160;-79
2021/12/29 04:51:22;;;;;;;46.93;23.27;;;3.70;99.90;;;;;;5047368;28;20187;-79
2021/12/29 04:53:48;;;;;;;43.63;22.47;;;3.80;99.90;;;;;;5060060;28;20205;-79
2021/12/29 04:56:15;;;;;;;43.03;23.07;;;3.80;99.90;;;;;;5054460;28;20212;-79
2021/12/29 04:58:42;;;;;;;42.27;21.73;;;3.80;99.90;;;;;;5064210;28;20222;-79
2021/12/29 05:01:07;;;;;;;39.20;20.77;;;3.80;99.90;;;;;;5052769;28;20182;-78
2021/12/29 05:03:36;;;;;;;38.47;21.37;;;3.90;99.90;;;;;;5053345;28;20273;-79
2021/12/29 05:08:29;;;;;;;35.87;18.97;;;3.80;99.90;;;;;;5058207;28;20193;-79
2021/12/29 05:11:02;;;;;;;33.80;19.40;;;3.90;99.90;;;;;;5064136;28;20169;-78
2021/12/29 05:13:30;;;;;;;33.80;18.50;;;4.00;99.90;;;;;;5051528;28;20223;-78
2021/12/29 05:15:57;;;;;;;35.50;19.50;;;4.00;99.90;;;;;;5060307;28;20232;-78
2021/12/29 05:18:30;;;;;;;35.20;19.23;;;4.00;99.90;;;;;;5062500;28;20173;-78
2021/12/29 05:20:56;;;;;;;33.27;18.97;;;4.10;99.90;;;;;;5062278;28;20165;-78
2021/12/29 05:23:23;;;;;;;28.80;17.17;;;4.20;99.90;;;;;;5062881;28;20181;-79
2021/12/29 05:25:50;;;;;;;34.50;19.20;;;4.10;99.90;;;;;;5058784;28;20208;-79
2021/12/29 05:28:20;;;;;;;40.77;20.80;;;4.10;99.90;;;;;;5043669;28;20193;-79
2021/12/29 05:30:48;;;;;;;42.40;21.50;;;3.90;99.90;;;;;;5041522;28;20266;-79
2021/12/29 05:33:15;;;;;;;35.60;20.07;;;3.80;99.90;;;;;;5042805;28;20206;-79
2021/12/29 05:35:41;;;;;;;40.40;20.53;;;3.60;99.90;;;;;;5042610;28;20288;-79
2021/12/29 05:38:07;;;;;;;41.07;21.27;;;3.60;99.90;;;;;;5041534;28;20197;-78
2021/12/29 05:40:33;;;;;;;43.77;21.40;;;3.70;99.90;;;;;;5038533;28;20174;-80
2021/12/29 05:42:59;;;;;;;32.67;18.67;;;3.70;99.90;;;;;;5040761;28;20169;-80
2021/12/29 05:45:27;;;;;;;36.73;19.73;;;3.90;99.90;;;;;;5028436;28;20205;-80
2021/12/29 05:47:55;;;;;;;30.73;17.37;;;3.90;99.90;;;;;;5038422;28;20193;-80
2021/12/29 05:50:23;;;;;;;32.43;18.70;;;3.80;99.90;;;;;;5047094;28;20209;-80
2021/12/29 05:52:49;;;;;;;31.77;18.13;;;3.80;99.90;;;;;;5030972;28;20177;-80
2021/12/29 05:55:26;;;;;;;31.47;18.67;;;3.70;99.90;;;;;;5033348;28;20220;-79
2021/12/29 05:57:53;;;;;;;31.13;18.80;;;3.90;99.90;;;;;;5027801;28;20193;-79
2021/12/29 06:00:20;;;;;;;29.03;17.20;;;4.00;99.90;;;;;;5030030;28;20242;-79
2021/12/29 06:02:46;;;;;;;30.17;18.07;;;4.00;99.90;;;;;;5037532;28;20264;-79
2021/12/29 06:05:12;;;;;;;28.77;17.60;;;4.10;99.90;;;;;;5048115;28;20240;-79
2021/12/29 06:07:38;;;;;;;30.17;16.67;;;4.00;99.90;;;;;;5031909;28;20170;-79
2021/12/29 06:10:06;;;;;;;30.03;18.43;;;4.10;99.90;;;;;;5031767;28;20228;-79
2021/12/29 06:12:32;;;;;;;27.93;16.70;;;4.10;99.90;;;;;;5044354;28;20662;-79
2021/12/29 06:14:57;;;;;;;26.63;16.80;;;3.90;99.90;;;;;;5030548;28;20242;-79
2021/12/29 06:17:23;;;;;;;29.10;17.93;;;4.00;99.90;;;;;;5039511;28;20283;-80
2021/12/29 06:19:49;;;;;;;31.47;16.80;;;4.10;99.90;;;;;;5032183;28;20758;-79
2021/12/29 06:22:15;;;;;;;29.10;17.63;;;4.10;99.90;;;;;;5023340;28;20173;-80
2021/12/29 06:24:42;;;;;;;28.90;16.47;;;4.10;99.90;;;;;;5041151;28;20201;-79
2021/12/29 06:27:09;;;;;;;27.37;16.83;;;4.00;99.90;;;;;;5050893;28;20181;-79
2021/12/29 06:29:36;;;;;;;29.20;17.07;;;3.90;99.90;;;;;;5041516;28;20192;-79
2021/12/29 06:32:03;;;;;;;27.70;16.90;;;4.00;99.90;;;;;;5036111;28;20550;-79
2021/12/29 06:34:31;;;;;;;28.90;17.60;;;4.00;99.90;;;;;;5031646;28;20205;-79
2021/12/29 06:36:58;;;;;;;30.70;18.50;;;4.00;99.90;;;;;;5030668;28;20178;-82
2021/12/29 06:39:24;;;;;;;26.10;16.40;;;4.10;99.90;;;;;;5032535;28;20287;-79
2021/12/29 06:41:50;;;;;;;28.43;17.40;;;4.00;99.90;;;;;;5034797;28;20178;-79
2021/12/29 06:44:15;;;;;;;31.70;18.23;;;4.00;99.90;;;;;;5034003;28;20205;-79
2021/12/29 06:46:41;;;;;;;26.73;16.57;;;3.90;99.90;;;;;;5024903;28;20174;-79
2021/12/29 06:49:07;;;;;;;29.27;17.90;;;3.90;99.90;;;;;;5030030;28;20185;-79
2021/12/29 06:51:32;;;;;;;32.00;18.57;;;3.80;99.90;;;;;;5047994;28;20219;-79
2021/12/29 06:54:00;;;;;;;29.83;18.70;;;3.70;99.90;;;;;;5027318;28;20205;-79
2021/12/29 06:56:26;;;;;;;29.73;17.70;;;3.60;99.90;;;;;;5043272;28;20188;-80
2021/12/29 06:58:52;;;;;;;34.60;19.63;;;3.40;99.90;;;;;;5039626;28;20181;-79
2021/12/29 07:01:18;;;;;;;30.17;18.30;;;3.30;99.90;;;;;;5049527;28;20173;-80
2021/12/29 07:03:43;;;;;;;31.63;18.50;;;3.20;99.90;;;;;;5032569;28;20265;-79
2021/12/29 07:06:09;;;;;;;34.57;20.00;;;3.40;99.90;;;;;;5037270;28;20666;-79
2021/12/29 07:08:37;;;;;;;33.20;19.50;;;3.50;99.90;;;;;;5034405;28;20179;-79
2021/12/29 07:11:03;;;;;;;33.97;20.03;;;3.50;99.90;;;;;;5048520;28;20193;-79
2021/12/29 07:13:29;;;;;;;36.03;19.43;;;3.50;99.90;;;;;;5038349;28;20205;-79
2021/12/29 07:15:54;;;;;;;29.53;17.63;;;3.30;99.90;;;;;;5049457;28;20253;-79
2021/12/29 07:18:20;;;;;;;32.23;19.63;;;3.20;99.90;;;;;;5042060;28;20173;-78
2021/12/29 07:20:46;;;;;;;32.40;19.17;;;3.10;99.90;;;;;;5047637;28;20272;-79
2021/12/29 07:23:12;;;;;;;35.73;21.13;;;3.10;99.90;;;;;;5052059;28;20211;-78
2021/12/29 07:25:38;;;;;;;34.67;20.13;;;3.10;99.90;;;;;;5030819;28;20198;-78
2021/12/29 07:28:04;;;;;;;35.73;20.00;;;3.10;99.90;;;;;;5020767;28;20182;-78
2021/12/29 07:30:30;;;;;;;37.70;19.80;;;3.20;99.90;;;;;;5038249;28;20188;-79
2021/12/29 07:32:55;;;;;;;33.17;19.47;;;3.30;99.90;;;;;;5048697;28;20180;-79
2021/12/29 07:35:21;;;;;;;29.90;18.30;;;3.30;99.90;;;;;;5028159;28;20204;-79
2021/12/29 07:37:47;;;;;;;36.33;20.97;;;3.30;99.90;;;;;;5044480;28;20192;-79
2021/12/29 07:40:13;;;;;;;40.83;21.37;;;3.30;99.90;;;;;;5026938;28;20505;-78
2021/12/29 07:42:54;;;;;;;34.07;19.50;;;3.20;99.90;;;;;;5028462;28;20180;-79
2021/12/29 07:45:20;;;;;;;38.60;20.73;;;3.10;99.90;;;;;;5029099;28;20263;-79
2021/12/29 07:47:48;;;;;;;38.63;19.97;;;3.00;99.90;;;;;;5042639;28;20268;-79
2021/12/29 07:50:18;;;;;;;37.60;20.60;;;3.00;99.90;;;;;;5047947;28;20173;-79
2021/12/29 07:52:47;;;;;;;37.07;20.13;;;3.10;99.90;;;;;;5045475;28;20174;-79
2021/12/29 07:55:17;;;;;;;38.53;20.50;;;3.20;99.90;;;;;;5053208;28;20201;-79
2021/12/29 07:57:43;;;;;;;41.70;21.43;;;3.30;99.90;;;;;;5048840;28;20562;-80
2021/12/29 08:00:11;;;;;;;35.97;19.77;;;3.30;99.90;;;;;;5041516;28;20181;-80
2021/12/29 08:02:39;;;;;;;36.63;19.63;;;3.20;99.90;;;;;;5030028;28;20190;-80
2021/12/29 08:05:08;;;;;;;40.60;21.87;;;3.30;99.90;;;;;;5039457;28;20189;-80
2021/12/29 08:07:35;;;;;;;40.03;20.80;;;3.30;99.90;;;;;;5044793;28;20234;-80
2021/12/29 08:10:00;;;;;;;40.17;21.13;;;3.20;99.90;;;;;;5041999;28;20204;-80
2021/12/29 08:12:34;;;;;;;40.17;21.27;;;3.20;99.90;;;;;;5036517;28;20174;-80
2021/12/29 08:14:59;;;;;;;38.60;21.13;;;3.20;99.90;;;;;;5052413;28;20216;-79
2021/12/29 08:17:25;;;;;;;45.43;22.67;;;3.20;99.90;;;;;;5049495;28;20170;-79
2021/12/29 08:19:51;;;;;;;46.87;22.47;;;3.20;99.90;;;;;;5036446;28;20178;-79
2021/12/29 08:22:18;;;;;;;45.83;23.30;;;3.10;99.90;;;;;;5034029;28;20178;-79
2021/12/29 08:24:44;;;;;;;46.23;24.13;;;3.10;99.90;;;;;;5033104;28;20201;-79
2021/12/29 08:27:10;;;;;;;42.63;22.20;;;3.00;99.90;;;;;;5034391;28;20501;-79
2021/12/29 08:29:36;;;;;;;45.00;22.13;;;3.10;99.90;;;;;;5038900;28;20172;-79
2021/12/29 08:32:04;;;;;;;46.07;23.40;;;3.30;99.90;;;;;;5047284;28;20475;-80
2021/12/29 08:34:29;;;;;;;45.50;22.43;;;3.30;99.90;;;;;;5036601;28;20202;-80
2021/12/29 08:36:55;;;;;;;42.37;21.70;;;3.20;99.90;;;;;;5028610;28;20182;-79
2021/12/29 08:39:22;;;;;;;45.30;22.67;;;3.30;99.90;;;;;;5056904;28;20241;-80
2021/12/29 08:41:50;;;;;;;49.43;23.73;;;3.20;99.90;;;;;;5040144;28;20185;-80
2021/12/29 08:44:17;;;;;;;44.50;22.90;;;3.30;99.90;;;;;;5051877;28;20273;-80
2021/12/29 08:46:47;;;;;;;45.20;22.53;;;3.30;99.90;;;;;;5038455;28;20260;-79
2021/12/29 08:49:13;;;;;;;46.93;23.60;;;3.10;99.90;;;;;;5036671;28;20182;-80
2021/12/29 08:51:40;;;;;;;42.67;22.67;;;3.10;99.90;;;;;;5047059;28;20580;-80
2021/12/29 08:54:06;;;;;;;47.77;25.17;;;3.10;99.90;;;;;;5036243;28;20189;-80
2021/12/29 08:56:32;;;;;;;42.10;22.33;;;3.20;99.90;;;;;;5048593;28;20177;-80
2021/12/29 08:58:57;;;;;;;44.47;22.50;;;3.10;99.90;;;;;;5040753;28;20177;-80
2021/12/29 09:01:25;;;;;;;43.30;23.53;;;3.20;99.90;;;;;;5038601;28;20166;-79
2021/12/29 09:03:57;;;;;;;39.80;21.30;;;3.30;99.90;;;;;;5044759;28;20182;-80
2021/12/29 09:06:22;;;;;;;40.83;22.30;;;3.60;99.90;;;;;;5045790;28;20204;-80
2021/12/29 09:08:48;;;;;;;40.13;22.47;;;4.00;99.90;;;;;;5049262;28;20288;-80
2021/12/29 09:11:15;;;;;;;41.63;22.37;;;4.00;99.90;;;;;;5043667;28;20182;-79
2021/12/29 09:13:41;;;;;;;39.53;21.70;;;4.00;99.90;;;;;;5052364;28;20628;-80
2021/12/29 09:16:07;;;;;;;36.93;21.53;;;4.00;99.90;;;;;;5052238;28;20209;-79
2021/12/29 09:18:36;;;;;;;40.30;22.93;;;4.00;99.90;;;;;;5045609;28;20165;-78
2021/12/29 09:21:07;;;;;;;39.90;22.27;;;4.00;99.90;;;;;;5028596;28;20619;-79
2021/12/29 09:23:34;;;;;;;35.90;21.07;;;4.00;99.90;;;;;;5034683;28;20178;-79
2021/12/29 09:26:01;;;;;;;36.73;21.43;;;4.10;99.90;;;;;;5035736;28;20665;-79
2021/12/29 09:28:27;;;;;;;42.70;22.67;;;4.00;99.90;;;;;;5046518;28;20193;-79
2021/12/29 09:30:53;;;;;;;43.57;23.17;;;3.80;99.90;;;;;;5027651;28;20178;-79
2021/12/29 09:33:20;;;;;;;41.53;22.53;;;3.70;99.90;;;;;;5034177;28;20201;-79
2021/12/29 09:35:48;;;;;;;43.53;23.60;;;3.70;99.90;;;;;;5048397;28;20211;-79
2021/12/29 09:38:16;;;;;;;44.50;23.67;;;3.70;99.90;;;;;;5025586;28;20220;-79
2021/12/29 09:40:42;;;;;;;44.37;23.87;;;3.50;99.90;;;;;;5047013;28;20243;-79
2021/12/29 09:43:08;;;;;;;43.10;24.13;;;3.60;99.90;;;;;;5047276;28;20170;-80
2021/12/29 09:45:36;;;;;;;50.33;24.80;;;3.50;99.90;;;;;;5037653;28;20209;-79
2021/12/29 09:48:04;;;;;;;53.43;26.37;;;3.50;99.90;;;;;;5027378;28;20289;-79
2021/12/29 09:50:30;;;;;;;49.97;24.83;;;3.50;99.90;;;;;;5037250;28;20231;-79
2021/12/29 09:52:57;;;;;;;49.07;25.50;;;3.40;99.90;;;;;;5043216;28;20177;-80
2021/12/29 09:55:24;;;;;;;49.97;23.63;;;3.40;99.90;;;;;;5036799;28;20220;-79
2021/12/29 09:57:53;;;;;;;44.73;24.80;;;3.40;99.90;;;;;;5046052;28;20174;-79
2021/12/29 10:00:35;;;;;;;47.63;23.57;;;3.50;99.90;;;;;;5035551;28;20228;-79
2021/12/29 10:03:06;;;;;;;42.47;22.33;;;3.40;99.90;;;;;;5050082;28;20249;-80
2021/12/29 10:05:32;;;;;;;45.30;23.47;;;3.40;99.90;;;;;;5032154;28;20288;-80
2021/12/29 10:08:06;;;;;;;43.17;23.70;;;3.50;99.90;;;;;;5044956;28;20208;-80
2021/12/29 10:10:33;;;;;;;41.67;21.60;;;3.60;99.90;;;;;;5039624;28;20577;-80
2021/12/29 10:13:08;;;;;;;42.00;23.40;;;3.60;99.90;;;;;;5037930;28;20182;-80
2021/12/29 10:15:41;;;;;;;48.17;24.97;;;3.60;99.90;;;;;;5030183;28;20683;-80
2021/12/29 10:18:12;;;;;;;43.40;24.30;;;3.50;99.90;;;;;;5039658;28;20549;-80
2021/12/29 10:20:58;;;;;;;43.20;24.13;;;3.50;99.90;;;;;;5048827;28;20482;-80
2021/12/29 10:23:28;;;;;;;48.97;24.57;;;3.50;99.90;;;;;;5030262;28;20222;-79
2021/12/29 10:26:15;;;;;;;43.23;23.10;;;3.50;99.90;;;;;;5019021;28;20212;-79
2021/12/29 10:28:47;;;;;;;51.53;25.70;;;3.50;99.90;;;;;;5035827;28;20207;-79
2021/12/29 10:31:26;;;;;;;49.47;25.37;;;3.50;99.90;;;;;;5029086;28;20181;-79
2021/12/29 10:33:57;;;;;;;46.67;24.37;;;3.60;99.90;;;;;;5045826;28;20314;-79
2021/12/29 10:36:28;;;;;;;52.47;25.37;;;3.60;99.90;;;;;;5047418;28;20193;-79
2021/12/29 10:39:08;;;;;;;50.00;24.67;;;3.70;99.90;;;;;;5036774;28;20183;-79
2021/12/29 10:42:09;;;;;;;52.47;25.60;;;3.70;99.90;;;;;;5052577;28;20185;-78
2021/12/29 10:44:34;;;;;;;47.87;24.27;;;3.80;99.90;;;;;;4992243;28;20234;-79
2021/12/29 10:47:12;;;;;;;52.23;25.50;;;3.90;99.90;;;;;;5042096;28;20170;-79
2021/12/29 10:49:53;;;;;;;51.77;25.03;;;3.80;99.90;;;;;;5043331;28;20583;-78
2021/12/29 10:52:49;;;;;;;50.87;24.00;;;3.80;99.90;;;;;;5038149;28;20177;-78
2021/12/29 10:55:31;;;;;;;52.97;25.63;;;3.80;99.90;;;;;;5036804;28;20210;-78
2021/12/29 10:58:05;;;;;;;50.80;25.67;;;3.90;99.90;;;;;;5037826;28;20185;-79
2021/12/29 11:00:31;;;;;;;53.77;27.07;;;3.90;99.90;;;;;;5033900;28;20280;-78
2021/12/29 11:03:11;;;;;;;53.50;25.67;;;4.00;99.90;;;;;;5049298;28;20165;-79
2021/12/29 11:05:39;;;;;;;52.47;25.97;;;4.00;99.90;;;;;;5029535;28;20217;-79
2021/12/29 11:08:10;;;;;;;48.07;23.73;;;4.00;99.90;;;;;;5034498;28;20236;-78
2021/12/29 11:10:36;;;;;;;53.03;26.83;;;4.20;99.90;;;;;;5032349;28;20170;-78
2021/12/29 11:13:02;;;;;;;53.27;27.43;;;4.20;99.90;;;;;;5031912;28;20251;-78
2021/12/29 11:15:32;;;;;;;50.40;26.40;;;4.10;99.90;;;;;;5021281;28;20239;-78
2021/12/29 11:18:49;;;;;;;52.70;26.03;;;4.20;99.90;;;;;;5046683;28;20180;-79
2021/12/29 11:21:23;;;;;;;53.67;25.37;;;4.10;99.90;;;;;;5000800;28;20186;-79
2021/12/29 11:23:49;;;;;;;49.17;24.93;;;4.20;99.90;;;;;;5034326;28;20176;-79
2021/12/29 11:26:14;;;;;;;47.23;25.23;;;4.30;99.90;;;;;;5039937;28;20197;-79
2021/12/29 11:28:40;;;;;;;47.17;24.67;;;4.50;99.90;;;;;;5047234;28;20285;-79
2021/12/29 11:31:08;;;;;;;51.70;26.97;;;4.60;99.90;;;;;;5047318;28;20265;-79
2021/12/29 11:33:34;;;;;;;51.37;26.87;;;4.70;99.90;;;;;;5046499;28;20217;-78
2021/12/29 11:36:01;;;;;;;51.37;25.93;;;4.60;99.90;;;;;;5029634;28;20201;-79
2021/12/29 11:38:28;;;;;;;54.03;27.60;;;4.60;99.90;;;;;;5046131;28;20644;-79
2021/12/29 11:41:01;;;;;;;52.57;27.23;;;4.70;99.90;;;;;;5026191;28;20182;-79
2021/12/29 11:43:27;;;;;;;48.33;25.93;;;4.70;99.90;;;;;;5040434;28;20644;-79
2021/12/29 11:45:56;;;;;;;49.03;26.87;;;4.70;99.90;;;;;;5044178;28;20266;-78
2021/12/29 11:48:24;;;;;;;48.63;26.60;;;4.80;99.90;;;;;;5044861;28;20174;-79
2021/12/29 11:51:00;;;;;;;52.57;26.43;;;4.80;99.90;;;;;;5033796;28;20189;-79
2021/12/29 11:53:47;;;;;;;52.67;26.83;;;4.90;99.90;;;;;;5046869;28;20229;-78
2021/12/29 11:56:19;;;;;;;54.37;26.87;;;4.60;99.90;;;;;;5043889;28;20210;-79
2021/12/29 11:58:46;;;;;;;51.83;26.47;;;4.50;99.90;;;;;;5044294;28;20165;-78
2021/12/29 12:01:16;;;;;;;51.83;26.80;;;4.60;99.90;;;;;;5044136;28;20170;-79
2021/12/29 12:03:52;;;;;;;55.50;28.03;;;4.70;99.90;;;;;;5051441;28;20204;-78
2021/12/29 12:06:27;;;;;;;48.40;25.77;;;4.70;99.90;;;;;;5031310;28;20228;-79
2021/12/29 12:09:25;;;;;;;51.10;25.63;;;4.60;99.90;;;;;;5052368;28;20587;-80
2021/12/29 12:11:56;;;;;;;54.30;26.67;;;4.80;99.90;;;;;;5037473;28;20184;-80
2021/12/29 12:14:36;;;;;;;54.23;27.10;;;4.80;99.90;;;;;;5053965;28;20206;-79
2021/12/29 12:17:21;;;;;;;54.93;27.53;;;4.90;99.90;;;;;;5050114;28;20250;-79
2021/12/29 12:20:09;;;;;;;55.03;27.47;;;4.90;99.90;;;;;;5054441;28;20192;-78
2021/12/29 12:22:53;;;;;;;51.20;26.93;;;4.60;99.90;;;;;;5037033;28;20182;-78
2021/12/29 12:25:27;;;;;;;52.63;26.87;;;4.40;99.90;;;;;;5030188;28;20206;-79
2021/12/29 12:28:00;;;;;;;55.40;27.57;;;4.30;99.90;;;;;;5030494;28;20203;-78
2021/12/29 12:30:38;;;;;;;52.77;25.73;;;4.30;99.90;;;;;;5046565;28;20178;-78
2021/12/29 12:33:12;;;;;;;48.40;24.50;;;4.30;99.90;;;;;;5039909;28;20181;-77
2021/12/29 12:35:48;;;;;;;50.60;25.13;;;4.20;99.90;;;;;;5027305;28;20194;-78
2021/12/29 12:38:34;;;;;;;52.00;25.30;;;4.10;99.90;;;;;;5047305;28;20489;-78
2021/12/29 12:41:06;;;;;;;53.13;24.37;;;4.20;99.90;;;;;;5044733;28;20173;-78
2021/12/29 12:43:58;;;;;;;49.67;24.43;;;4.20;99.90;;;;;;5054313;28;20211;-78
2021/12/29 12:46:45;;;;;;;53.20;25.53;;;4.30;99.90;;;;;;5043507;28;20549;-78
2021/12/29 12:49:29;;;;;;;51.80;24.97;;;4.40;99.90;;;;;;5039005;28;20178;-79
2021/12/29 12:52:06;;;;;;;48.60;25.13;;;4.50;99.90;;;;;;5056684;28;20281;-79